Список аэропортов
Фактическая погода:

23 апреля, 12:20
Температура: +5°C (+1.8*)
Ветер: сев.-западный 4 м/с
Давление: *751 мм
неб. облачность
750 м
неб. кучево-дождевые 900 м
разорв. обл.
1800 м
ливневый в окрестностях
Время (МСК)Темп. СВетерВлажностьДавлениеОблачностьОсадки
09:00+2СЗ, 3 м/с94%1000 гПаоблачнодождь
10:00+3СЗ, 3 м/с91%1000 гПаоблачносл. дождь
11:00+4СЗ, 3 м/с88%1000 гПаоблачносл. дождь
12:00+4СЗ, 3 м/с85%1001 гПаоблачносл. дождь
13:00+5СЗ, 3 м/с80%1001 гПаоблачносл. дождь
14:00+7СЗ, 2 м/с58%1001 гПаоблачносл. дождь
15:00+8СЗ, 2 м/с43%1001 гПаоблачно
16:00+8З, 2 м/с40%1001 гПаоблачно
17:00+6З, 3 м/с72%1002 гПаоблачнодождь
18:00+5З, 3 м/с83%1002 гПаоблачнодождь
19:00+5З, 2 м/с75%1002 гПаоблачносл. дождь
20:00+4З, 2 м/с78%1003 гПаоблачносл. дождь
21:00+2З, 1 м/с91%1004 гПамалооблачно
22:00+1З, 1 м/с97%1004 гПамалооблачно
23:000З, 2 м/с96%1004 гПаоблачно
24 апреля
00:000З, 2 м/с88%1005 гПамалооблачно
01:00-1З, 2 м/с89%1005 гПамалооблачно
02:00-2З, 2 м/с92%1005 гПамалооблачно
03:00-2З, 2 м/с93%1005 гПаясно
04:00-2З, 2 м/с94%1005 гПаясно
05:00-3З, 1 м/с94%1005 гПаясно
06:00-3З, 1 м/с95%1005 гПаоблачно
07:00-2З, 1 м/с96%1006 гПаоблачно
08:000З, 1 м/с90%1006 гПаоблачно
09:00+3Штиль 85%1006 гПаоблачно
10:00+6ЮЗ, 1 м/с67%1006 гПаоблачно
11:00+7ЮЗ, 2 м/с62%1006 гПаоблачносл. дождь
12:00+6ЮЗ, 2 м/с80%1006 гПаоблачнодождь
13:00+6ЮЗ, 2 м/с83%1006 гПаоблачнодождь
14:00+7ЮЗ, 2 м/с85%1006 гПаоблачнодождь
15:00+7ЮЗ, 2 м/с86%1006 гПаоблачнодождь
16:00+7ЮЗ, 2 м/с86%1006 гПаоблачнодождь
17:00+7ЮЗ, 2 м/с87%1006 гПаоблачнодождь
18:00+6ЮЗ, 2 м/с89%1006 гПас прояснениямидождь
19:00+6ЮЗ, 2 м/с89%1006 гПамалооблачносл. дождь
20:00+5Ю, 2 м/с89%1006 гПаясно
21:00+3ЮЗ, 1 м/с91%1006 гПаясно
22:00+1ЮЗ, 1 м/с92%1006 гПаясно
23:000ЮЗ, 1 м/с94%1006 гПас прояснениями
25 апреля
00:00-1ЮЗ, 1 м/с96%1006 гПаоблачно
01:00-1Ю, 1 м/с97%1006 гПаоблачно
02:00-1ЮВ, 1 м/с98%1005 гПаоблачно
03:00-1В, 1 м/с98%1005 гПаоблачно
04:00-1В, 1 м/с97%1004 гПаоблачно
05:000ЮВ, 2 м/с98%1004 гПаоблачно
06:00+1ЮВ, 2 м/с96%1004 гПаоблачно
07:00+2ЮВ, 3 м/с90%1003 гПаоблачносл. дождь
08:00+2ЮВ, 4 м/с87%1003 гПаоблачносл. дождь
09:00+2ЮВ, 4 м/с91%1002 гПаоблачнодождь